createdAt,value
2018-09-12T00:01:51.933Z,21.20
2018-09-12T00:04:21.432Z,21.20
2018-09-12T00:06:50.941Z,21.20
2018-09-12T00:09:20.503Z,21.20
2018-09-12T00:11:50.847Z,21.10
2018-09-12T00:14:20.994Z,21.10
2018-09-12T00:16:50.636Z,21.00
2018-09-12T00:19:21.225Z,20.90
2018-09-12T00:21:50.934Z,20.90
2018-09-12T00:24:21.808Z,20.90
2018-09-12T00:26:52.936Z,20.90
2018-09-12T00:29:22.464Z,20.80
2018-09-12T00:31:52.932Z,20.80
2018-09-12T00:34:23.319Z,20.80
2018-09-12T00:36:53.215Z,20.70
2018-09-12T00:39:24.137Z,20.70
2018-09-12T00:41:53.657Z,20.70
2018-09-12T00:44:28.145Z,20.60
2018-09-12T00:46:57.744Z,20.60
2018-09-12T00:49:27.267Z,20.60
2018-09-12T00:51:56.819Z,20.60
2018-09-12T00:54:26.296Z,20.60
2018-09-12T00:56:55.796Z,20.60
2018-09-12T00:59:25.351Z,20.60
2018-09-12T01:01:54.833Z,20.60
2018-09-12T01:04:24.618Z,20.50
2018-09-12T01:06:54.624Z,20.50
2018-09-12T01:09:24.140Z,20.50
2018-09-12T01:11:53.622Z,20.50
2018-09-12T01:14:23.215Z,20.50
2018-09-12T01:16:55.667Z,20.50
2018-09-12T01:19:25.220Z,20.50
2018-09-12T01:21:54.844Z,20.40
2018-09-12T01:24:24.744Z,20.40
2018-09-12T01:26:54.321Z,20.40
2018-09-12T01:29:26.450Z,20.30
2018-09-12T01:31:56.297Z,20.20
2018-09-12T01:34:25.826Z,20.20
2018-09-12T01:36:55.408Z,20.20
2018-09-12T01:39:25.188Z,20.10
2018-09-12T01:41:54.708Z,20.10
2018-09-12T01:44:24.270Z,20.00
2018-09-12T01:46:53.742Z,20.00
2018-09-12T01:49:23.215Z,20.00
2018-09-12T01:51:52.709Z,20.00
2018-09-12T01:54:22.209Z,19.90
2018-09-12T01:56:51.692Z,19.70
2018-09-12T01:59:21.531Z,19.70
2018-09-12T02:01:50.986Z,19.60
2018-09-12T02:04:20.558Z,19.50
2018-09-12T02:06:50.099Z,19.50
2018-09-12T02:09:19.660Z,19.40
2018-09-12T02:11:49.171Z,19.40
2018-09-12T02:14:18.740Z,19.30
2018-09-12T02:16:48.290Z,19.30
2018-09-12T02:19:17.808Z,19.20
2018-09-12T02:21:47.329Z,19.20
2018-09-12T02:24:16.897Z,19.10
2018-09-12T02:26:46.437Z,19.10
2018-09-12T02:29:16.041Z,19.00
2018-09-12T02:31:45.542Z,19.00
2018-09-12T02:34:15.115Z,18.90
2018-09-12T02:36:44.634Z,18.90
2018-09-12T02:39:14.166Z,18.90
2018-09-12T02:41:43.683Z,18.90
2018-09-12T02:44:13.190Z,18.90
2018-09-12T02:46:42.673Z,18.80
2018-09-12T02:49:12.189Z,18.70
2018-09-12T02:51:41.753Z,18.60
2018-09-12T02:54:11.300Z,18.60
2018-09-12T02:56:40.879Z,18.50
2018-09-12T02:59:10.384Z,18.50
2018-09-12T03:01:39.876Z,18.50
2018-09-12T03:04:20.126Z,18.40
2018-09-12T03:06:49.664Z,18.30
2018-09-12T03:09:19.156Z,18.30
2018-09-12T03:11:48.631Z,18.20
2018-09-12T03:14:18.152Z,18.20
2018-09-12T03:16:47.636Z,18.20
2018-09-12T03:19:17.132Z,18.10
2018-09-12T03:21:46.596Z,18.10
2018-09-12T03:24:16.202Z,18.20
2018-09-12T03:26:45.774Z,18.20
2018-09-12T03:29:15.308Z,18.20
2018-09-12T03:31:44.814Z,18.30
2018-09-12T03:34:14.336Z,18.30
2018-09-12T03:36:43.878Z,18.30
2018-09-12T03:39:13.427Z,18.30
2018-09-12T03:41:42.977Z,18.30
2018-09-12T03:44:12.864Z,18.30
2018-09-12T03:46:42.757Z,18.30
2018-09-12T03:49:12.943Z,18.20
2018-09-12T03:51:43.395Z,18.20
2018-09-12T03:54:13.046Z,18.10
2018-09-12T03:56:42.576Z,18.00
2018-09-12T03:59:12.095Z,17.90
2018-09-12T04:01:41.636Z,17.90
2018-09-12T04:04:11.174Z,17.80
2018-09-12T04:06:40.692Z,17.80
2018-09-12T04:09:10.453Z,17.80
2018-09-12T04:11:39.982Z,17.90
2018-09-12T04:14:09.490Z,17.90
2018-09-12T04:16:39.211Z,18.00
2018-09-12T04:19:08.703Z,18.00
2018-09-12T04:21:38.206Z,18.10
2018-09-12T04:24:07.865Z,18.10
2018-09-12T04:26:37.421Z,18.10
2018-09-12T04:29:06.962Z,18.10
2018-09-12T04:31:36.500Z,18.10
2018-09-12T04:34:05.941Z,18.10
2018-09-12T04:36:35.553Z,18.20
2018-09-12T04:39:07.759Z,18.20
2018-09-12T04:41:37.617Z,18.30
2018-09-12T04:44:07.105Z,18.20
2018-09-12T04:46:36.812Z,18.30
2018-09-12T04:49:06.652Z,18.30
2018-09-12T04:51:36.463Z,18.20
2018-09-12T04:54:05.928Z,18.20
2018-09-12T04:56:35.411Z,18.20
2018-09-12T04:59:05.273Z,18.30
2018-09-12T05:01:34.816Z,18.30
2018-09-12T05:04:04.352Z,18.30
2018-09-12T05:06:33.879Z,18.30
2018-09-12T05:09:04.157Z,18.30
2018-09-12T05:11:33.642Z,18.30
2018-09-12T05:14:03.186Z,18.40
2018-09-12T05:16:32.892Z,18.40
2018-09-12T05:19:02.441Z,18.40
2018-09-12T05:21:31.959Z,18.40
2018-09-12T05:24:01.562Z,18.40
2018-09-12T05:26:31.083Z,18.50
2018-09-12T05:29:00.598Z,18.50
2018-09-12T05:31:30.089Z,18.60
2018-09-12T05:33:59.635Z,18.60
2018-09-12T05:36:29.238Z,18.70
2018-09-12T05:38:59.411Z,18.70
2018-09-12T05:41:28.912Z,18.80
2018-09-12T05:43:58.422Z,18.80
2018-09-12T05:46:27.936Z,18.80
2018-09-12T05:48:57.447Z,18.90
2018-09-12T05:51:26.927Z,18.90
2018-09-12T05:54:06.840Z,18.90
2018-09-12T05:56:36.369Z,19.00
2018-09-12T05:59:06.096Z,19.00
2018-09-12T06:01:35.647Z,19.10
2018-09-12T06:04:05.182Z,19.10
2018-09-12T06:06:34.779Z,19.10
2018-09-12T06:09:06.608Z,19.10
2018-09-12T06:11:36.134Z,19.10
2018-09-12T06:14:05.902Z,19.20
2018-09-12T06:16:35.509Z,19.30
2018-09-12T06:19:05.034Z,19.20
2018-09-12T06:21:34.548Z,19.30
2018-09-12T06:24:04.077Z,19.30
2018-09-12T06:26:33.653Z,19.40
2018-09-12T06:29:03.154Z,19.40
2018-09-12T06:31:32.707Z,19.40
2018-09-12T06:34:02.228Z,19.50
2018-09-12T06:36:31.800Z,19.50
2018-09-12T06:39:01.402Z,19.60
2018-09-12T06:41:31.214Z,19.70
2018-09-12T06:44:00.742Z,19.70
2018-09-12T06:46:30.251Z,19.70
2018-09-12T06:48:59.831Z,19.70
2018-09-12T06:51:29.411Z,19.80
2018-09-12T06:53:58.967Z,19.80
2018-09-12T06:56:28.584Z,19.80
2018-09-12T06:58:58.175Z,19.80
2018-09-12T07:01:27.728Z,19.90
2018-09-12T07:03:57.520Z,20.00
2018-09-12T07:06:27.038Z,19.90
2018-09-12T07:08:56.610Z,19.90
2018-09-12T07:11:26.131Z,20.00
2018-09-12T07:13:55.690Z,20.10
2018-09-12T07:16:25.265Z,20.10
2018-09-12T07:18:54.782Z,20.20
2018-09-12T07:21:24.341Z,20.20
2018-09-12T07:23:53.913Z,20.30
2018-09-12T07:26:23.447Z,20.30
2018-09-12T07:28:52.979Z,20.30
2018-09-12T07:31:22.500Z,20.30
2018-09-12T07:33:52.041Z,20.30
2018-09-12T07:36:21.601Z,20.30
2018-09-12T07:38:51.220Z,20.30
2018-09-12T07:41:20.906Z,20.30
2018-09-12T07:43:50.591Z,20.20
2018-09-12T07:46:20.175Z,20.40
2018-09-12T07:48:49.710Z,20.60
2018-09-12T07:51:19.474Z,20.90
2018-09-12T07:53:50.766Z,21.00
2018-09-12T07:56:20.487Z,21.10
2018-09-12T07:58:50.351Z,21.40
2018-09-12T08:01:19.913Z,21.30
2018-09-12T08:03:49.738Z,21.30
2018-09-12T08:06:19.226Z,21.20
2018-09-12T08:08:48.802Z,21.30
2018-09-12T08:11:18.320Z,21.20
2018-09-12T08:13:47.848Z,21.40
2018-09-12T08:16:17.401Z,21.50
2018-09-12T08:18:46.888Z,22.00
2018-09-12T08:21:16.486Z,22.10
2018-09-12T08:23:46.011Z,21.80
2018-09-12T08:26:15.649Z,21.90
2018-09-12T08:28:45.115Z,22.10
2018-09-12T08:31:14.722Z,22.10
2018-09-12T08:33:44.259Z,22.10
2018-09-12T08:36:13.881Z,22.00
2018-09-12T08:38:43.415Z,21.70
2018-09-12T08:41:12.975Z,21.50
2018-09-12T08:43:42.486Z,21.50
2018-09-12T08:46:12.056Z,21.50
2018-09-12T08:48:43.826Z,21.70
2018-09-12T08:51:13.383Z,21.90
2018-09-12T08:53:42.956Z,22.10
2018-09-12T08:56:12.456Z,22.10
2018-09-12T08:58:42.018Z,22.10
2018-09-12T09:01:11.523Z,22.00
2018-09-12T09:03:41.072Z,22.10
2018-09-12T09:06:10.678Z,22.20
2018-09-12T09:08:40.326Z,22.20
2018-09-12T09:11:10.006Z,22.10
2018-09-12T09:13:39.526Z,22.10
2018-09-12T09:16:09.130Z,22.20
2018-09-12T09:18:38.646Z,22.20
2018-09-12T09:21:08.267Z,22.20
2018-09-12T09:23:37.787Z,22.20
2018-09-12T09:26:07.453Z,22.30
2018-09-12T09:28:37.024Z,22.40
2018-09-12T09:31:06.678Z,22.30
2018-09-12T09:33:36.235Z,22.30
2018-09-12T09:36:06.050Z,22.20
2018-09-12T09:38:35.574Z,22.20
2018-09-12T09:41:05.144Z,22.20
2018-09-12T09:43:34.790Z,22.10
2018-09-12T09:46:04.517Z,22.00
2018-09-12T09:48:34.069Z,21.40
2018-09-12T09:51:03.816Z,20.90
2018-09-12T09:53:33.501Z,20.50
2018-09-12T09:56:03.810Z,20.00
2018-09-12T09:58:33.361Z,19.60
2018-09-12T10:01:08.137Z,19.30
2018-09-12T10:03:42.587Z,19.10
2018-09-12T10:06:17.398Z,18.90
2018-09-12T10:08:53.028Z,18.60
2018-09-12T10:11:22.837Z,18.50
2018-09-12T10:13:52.827Z,18.30
2018-09-12T10:16:22.854Z,18.10
2018-09-12T10:18:52.438Z,17.90
2018-09-12T10:21:22.074Z,17.70
2018-09-12T10:23:51.773Z,17.60
2018-09-12T10:26:23.443Z,17.60
2018-09-12T10:28:55.252Z,17.60
2018-09-12T10:31:24.836Z,17.70
2018-09-12T10:33:54.379Z,17.90
2018-09-12T10:36:24.246Z,17.90
2018-09-12T10:38:53.881Z,18.10
2018-09-12T10:41:23.513Z,18.30
2018-09-12T10:43:53.221Z,18.70
2018-09-12T10:46:22.730Z,18.50
2018-09-12T10:48:52.331Z,18.40
2018-09-12T10:51:21.911Z,18.30
2018-09-12T10:53:51.432Z,18.40
2018-09-12T10:56:21.138Z,18.30
2018-09-12T10:58:50.778Z,18.30
2018-09-12T11:01:20.710Z,18.50
2018-09-12T11:03:50.323Z,18.80
2018-09-12T11:06:21.865Z,19.10
2018-09-12T11:08:51.808Z,19.20
2018-09-12T11:11:21.362Z,19.10
2018-09-12T11:13:51.039Z,19.00
2018-09-12T11:16:21.381Z,18.90
2018-09-12T11:18:50.940Z,18.80
2018-09-12T11:21:20.543Z,18.60
2018-09-12T11:23:50.271Z,18.50
2018-09-12T11:26:21.033Z,18.50
2018-09-12T11:28:50.941Z,18.30
2018-09-12T11:31:20.711Z,18.30
2018-09-12T11:33:50.343Z,18.30
2018-09-12T11:36:19.879Z,18.30
2018-09-12T11:38:49.491Z,18.20
2018-09-12T11:41:19.095Z,17.90
2018-09-12T11:43:54.686Z,17.90
2018-09-12T11:46:26.469Z,17.70
2018-09-12T11:48:56.059Z,17.70
2018-09-12T11:51:25.591Z,17.60
2018-09-12T11:53:55.145Z,17.60
2018-09-12T11:56:24.820Z,17.60
2018-09-12T11:58:54.366Z,17.60
2018-09-12T12:01:23.996Z,17.60
2018-09-12T12:03:53.492Z,17.50
2018-09-12T12:06:23.081Z,17.60
2018-09-12T12:08:52.687Z,17.50
2018-09-12T12:11:22.329Z,17.30
2018-09-12T12:13:51.972Z,17.20
2018-09-12T12:16:21.587Z,17.10
2018-09-12T12:18:51.206Z,17.00
2018-09-12T12:21:20.765Z,17.00
2018-09-12T12:23:50.362Z,17.00
2018-09-12T12:26:21.639Z,17.10
2018-09-12T12:28:51.790Z,17.10
2018-09-12T12:31:21.399Z,17.10
2018-09-12T12:33:51.020Z,17.10
2018-09-12T12:36:20.730Z,17.00
2018-09-12T12:39:01.980Z,16.90
2018-09-12T12:41:31.546Z,16.80
2018-09-12T12:44:01.111Z,16.80
2018-09-12T12:46:30.633Z,16.80
2018-09-12T12:49:00.233Z,16.80
2018-09-12T12:51:30.015Z,16.60
2018-09-12T12:53:59.557Z,16.50
2018-09-12T12:56:29.095Z,16.60
2018-09-12T12:59:00.354Z,16.60
2018-09-12T13:01:29.863Z,16.50
2018-09-12T13:04:02.708Z,16.50
2018-09-12T13:06:32.386Z,16.40
2018-09-12T13:09:02.035Z,16.40
2018-09-12T13:11:31.648Z,16.30
2018-09-12T13:14:01.260Z,16.30
2018-09-12T13:16:30.955Z,16.20
2018-09-12T13:19:00.565Z,16.10
2018-09-12T13:21:30.266Z,16.00
2018-09-12T13:24:01.096Z,15.90
2018-09-12T13:26:30.885Z,15.90
2018-09-12T13:29:01.929Z,15.90
2018-09-12T13:31:31.848Z,15.90
2018-09-12T13:34:01.511Z,15.80
2018-09-12T13:36:31.094Z,15.80
2018-09-12T13:39:00.796Z,15.80
2018-09-12T13:41:30.447Z,15.80
2018-09-12T13:44:00.098Z,15.80
2018-09-12T13:46:29.703Z,15.80
2018-09-12T13:48:59.509Z,15.80
2018-09-12T13:51:29.240Z,15.80
2018-09-12T13:54:03.480Z,15.70
2018-09-12T13:56:33.711Z,15.70
2018-09-12T13:59:03.919Z,15.80
2018-09-12T14:01:33.638Z,15.80
2018-09-12T14:04:03.427Z,16.00
2018-09-12T14:06:33.185Z,16.10
2018-09-12T14:09:02.869Z,16.10
2018-09-12T14:11:32.530Z,16.00
2018-09-12T14:14:04.048Z,16.00
2018-09-12T14:16:33.827Z,16.10
2018-09-12T14:19:03.607Z,16.20
2018-09-12T14:21:33.297Z,16.20
2018-09-12T14:24:03.076Z,16.30
2018-09-12T14:26:32.695Z,16.50
2018-09-12T14:29:02.375Z,16.70
2018-09-12T14:31:32.074Z,16.90
2018-09-12T14:34:01.779Z,17.00
2018-09-12T14:36:31.477Z,17.30
2018-09-12T14:39:01.226Z,17.30
2018-09-12T14:41:30.776Z,17.50
2018-09-12T14:44:00.517Z,17.40
2018-09-12T14:46:30.091Z,17.40
2018-09-12T14:48:59.655Z,17.50
2018-09-12T14:51:29.565Z,17.50
2018-09-12T14:53:59.107Z,17.50
2018-09-12T14:56:29.194Z,17.40
2018-09-12T14:58:58.834Z,17.30
2018-09-12T15:01:28.430Z,17.10
2018-09-12T15:03:58.090Z,17.20
2018-09-12T15:06:27.660Z,17.30
2018-09-12T15:08:57.244Z,17.10
2018-09-12T15:11:27.209Z,17.30
2018-09-12T15:13:56.753Z,17.20
2018-09-12T15:16:41.386Z,17.20
2018-09-12T15:19:10.937Z,17.10
2018-09-12T15:21:40.522Z,17.00
2018-09-12T15:24:10.170Z,17.00
2018-09-12T15:26:42.006Z,17.10
2018-09-12T15:29:11.677Z,17.00
2018-09-12T15:31:41.424Z,17.00
2018-09-12T15:34:11.139Z,17.00
2018-09-12T15:36:40.760Z,16.90
2018-09-12T15:39:11.744Z,16.90
2018-09-12T15:41:41.877Z,17.00
2018-09-12T15:44:11.749Z,16.90
2018-09-12T15:46:42.214Z,16.90
2018-09-12T15:49:11.943Z,16.80
2018-09-12T15:51:41.762Z,16.70
2018-09-12T15:54:11.462Z,16.70
2018-09-12T15:56:41.118Z,16.70
2018-09-12T15:59:10.848Z,16.70
2018-09-12T16:01:41.049Z,16.70
2018-09-12T16:04:10.712Z,16.80
2018-09-12T16:06:40.369Z,16.90
2018-09-12T16:09:10.452Z,16.90
2018-09-12T16:11:40.273Z,16.90
2018-09-12T16:14:10.173Z,16.80
2018-09-12T16:16:39.852Z,16.70
2018-09-12T16:19:09.600Z,16.80
2018-09-12T16:21:39.580Z,16.70
2018-09-12T16:24:09.299Z,16.70
2018-09-12T16:26:40.219Z,16.60
2018-09-12T16:29:10.067Z,16.60
2018-09-12T16:31:39.757Z,16.50
2018-09-12T16:34:09.400Z,16.50
2018-09-12T16:36:39.113Z,16.40
2018-09-12T16:39:11.374Z,16.40
2018-09-12T16:41:45.432Z,16.40
2018-09-12T16:44:15.079Z,16.30
2018-09-12T16:46:44.678Z,16.20
2018-09-12T16:49:14.251Z,16.20
2018-09-12T16:51:43.944Z,16.30
2018-09-12T16:54:13.622Z,16.20
2018-09-12T16:56:43.334Z,16.20
2018-09-12T16:59:13.074Z,16.20
2018-09-12T17:01:42.766Z,16.20
2018-09-12T17:04:12.507Z,16.20
2018-09-12T17:06:42.175Z,16.30
2018-09-12T17:09:12.287Z,16.20
2018-09-12T17:11:42.042Z,16.20
2018-09-12T17:14:11.747Z,16.30
2018-09-12T17:16:41.523Z,16.30
2018-09-12T17:19:11.196Z,16.20
2018-09-12T17:21:44.789Z,16.20
2018-09-12T17:24:14.923Z,16.20
2018-09-12T17:26:46.060Z,16.10
2018-09-12T17:29:20.818Z,16.10
2018-09-12T17:31:53.022Z,16.10
2018-09-12T17:34:22.991Z,16.10
2018-09-12T17:36:52.797Z,16.10
2018-09-12T17:39:22.595Z,16.10
2018-09-12T17:41:52.378Z,16.10
2018-09-12T17:44:22.187Z,16.10
2018-09-12T17:46:53.581Z,16.10
2018-09-12T17:49:28.871Z,16.10
2018-09-12T17:52:02.596Z,16.10
2018-09-12T17:54:35.342Z,16.10
2018-09-12T17:57:08.357Z,16.10
2018-09-12T17:59:44.939Z,16.10
2018-09-12T18:02:15.861Z,16.10
2018-09-12T18:04:46.851Z,16.10
2018-09-12T18:07:18.283Z,16.10
2018-09-12T18:09:48.594Z,16.10
2018-09-12T18:12:18.320Z,16.10
2018-09-12T18:14:48.315Z,16.10
2018-09-12T18:17:20.297Z,16.10
2018-09-12T18:19:52.073Z,16.00
2018-09-12T18:22:23.756Z,15.90
2018-09-12T18:24:55.653Z,15.90
2018-09-12T18:27:26.353Z,15.90
2018-09-12T18:29:56.177Z,16.00
2018-09-12T18:32:25.926Z,16.00
2018-09-12T18:34:55.909Z,16.00
2018-09-12T18:37:25.570Z,15.90
2018-09-12T18:39:55.276Z,15.90
2018-09-12T18:42:24.937Z,15.80
2018-09-12T18:44:54.684Z,15.70
2018-09-12T18:47:24.404Z,15.60
2018-09-12T18:49:54.308Z,15.50
2018-09-12T18:52:25.439Z,15.50
2018-09-12T18:54:55.360Z,15.40
2018-09-12T18:57:25.259Z,15.40
2018-09-12T18:59:56.511Z,15.30
2018-09-12T19:02:28.236Z,15.40
2018-09-12T19:04:58.018Z,15.40
2018-09-12T19:07:29.054Z,15.30
2018-09-12T19:10:00.608Z,15.20
2018-09-12T19:12:32.787Z,15.20
2018-09-12T19:15:04.697Z,15.20
2018-09-12T19:17:39.177Z,15.10
2018-09-12T19:20:09.433Z,15.10
2018-09-12T19:22:40.514Z,15.10
2018-09-12T19:25:11.765Z,15.10
2018-09-12T19:27:41.962Z,15.10
2018-09-12T19:30:21.573Z,15.00
2018-09-12T19:32:54.008Z,15.00
2018-09-12T19:35:25.320Z,14.90
2018-09-12T19:37:55.841Z,14.80
2018-09-12T19:40:28.048Z,14.80
2018-09-12T19:43:00.170Z,14.70
2018-09-12T19:45:34.796Z,14.70
2018-09-12T19:48:12.376Z,14.60
2018-09-12T19:50:44.219Z,14.50
2018-09-12T19:53:24.819Z,14.50
2018-09-12T19:55:55.296Z,14.40
2018-09-12T19:58:25.282Z,14.40
2018-09-12T20:00:55.855Z,14.50
2018-09-12T20:03:25.733Z,14.40
2018-09-12T20:05:55.820Z,14.40
2018-09-12T20:08:25.596Z,14.40
2018-09-12T20:10:55.706Z,14.40
2018-09-12T20:13:26.118Z,14.40
2018-09-12T20:15:55.871Z,14.40
2018-09-12T20:18:25.745Z,14.50
2018-09-12T20:20:55.477Z,14.50
2018-09-12T20:23:25.686Z,14.40
2018-09-12T20:25:55.449Z,14.40
2018-09-12T20:28:25.216Z,14.40
2018-09-12T20:30:54.959Z,14.30
2018-09-12T20:33:24.715Z,14.30
2018-09-12T20:35:54.401Z,14.40
2018-09-12T20:38:24.112Z,14.50
2018-09-12T20:40:53.815Z,14.40
2018-09-12T20:43:23.947Z,14.40
2018-09-12T20:45:53.601Z,14.40
2018-09-12T20:48:23.722Z,14.40
2018-09-12T20:50:53.530Z,14.50
2018-09-12T20:53:23.588Z,14.40
2018-09-12T20:55:54.949Z,14.40
2018-09-12T20:58:24.755Z,14.50
2018-09-12T21:00:54.969Z,14.50
2018-09-12T21:03:25.326Z,14.60
2018-09-12T21:06:02.724Z,14.50
2018-09-12T21:11:53.207Z,14.40
2018-09-12T21:14:28.688Z,14.40
2018-09-12T21:20:18.774Z,14.30
2018-09-12T21:27:02.000Z,14.40
2018-09-12T21:29:31.473Z,14.30
2018-09-12T21:32:00.928Z,14.20
2018-09-12T21:34:30.385Z,14.30
2018-09-12T21:36:59.784Z,14.30
2018-09-12T21:39:29.216Z,14.40
2018-09-12T21:41:58.646Z,14.40
2018-09-12T21:44:28.106Z,14.40
2018-09-12T21:46:57.597Z,14.30
2018-09-12T21:49:26.985Z,14.30
2018-09-12T21:51:56.457Z,14.30
2018-09-12T21:54:25.892Z,14.30
2018-09-12T21:56:55.557Z,14.30
2018-09-12T21:59:24.995Z,14.40
2018-09-12T22:01:54.433Z,14.40
2018-09-12T22:04:23.942Z,14.40
2018-09-12T22:06:53.375Z,14.40
2018-09-12T22:09:22.774Z,14.40
2018-09-12T22:11:52.217Z,14.40
2018-09-12T22:14:21.645Z,14.40
2018-09-12T22:16:51.086Z,14.50
2018-09-12T22:19:20.852Z,14.50
2018-09-12T22:21:50.294Z,14.40
2018-09-12T22:24:19.743Z,14.40
2018-09-12T22:26:49.206Z,14.40
2018-09-12T22:29:18.617Z,14.40
2018-09-12T22:31:48.291Z,14.40
2018-09-12T22:34:17.722Z,14.40
2018-09-12T22:36:47.108Z,14.40
2018-09-12T22:39:16.568Z,14.40
2018-09-12T22:41:45.991Z,14.50
2018-09-12T22:44:15.455Z,14.40
2018-09-12T22:46:44.868Z,14.40
2018-09-12T22:49:14.327Z,14.40
2018-09-12T22:51:43.781Z,14.40
2018-09-12T22:54:13.207Z,14.40
2018-09-12T22:56:42.614Z,14.40
2018-09-12T22:59:12.044Z,14.40
2018-09-12T23:01:41.437Z,14.40
2018-09-12T23:04:10.891Z,14.40
2018-09-12T23:06:40.305Z,14.40
2018-09-12T23:09:10.466Z,14.30
2018-09-12T23:11:39.966Z,14.40
2018-09-12T23:14:09.423Z,14.40
2018-09-12T23:16:39.292Z,14.40
2018-09-12T23:19:08.728Z,14.40
2018-09-12T23:21:38.180Z,14.30
2018-09-12T23:24:07.633Z,14.30
2018-09-12T23:26:37.022Z,14.30
2018-09-12T23:29:06.506Z,14.30
2018-09-12T23:31:36.300Z,14.30
2018-09-12T23:34:06.030Z,14.30
2018-09-12T23:36:35.449Z,14.30
2018-09-12T23:39:08.680Z,14.30
2018-09-12T23:41:38.097Z,14.30
2018-09-12T23:44:07.819Z,14.30
2018-09-12T23:46:37.333Z,14.30
2018-09-12T23:49:07.352Z,14.20
2018-09-12T23:51:36.853Z,14.20
2018-09-12T23:54:06.461Z,14.20
2018-09-12T23:56:35.911Z,14.20
2018-09-12T23:59:05.598Z,14.20
